Weather at Cape Eleuthera Airport [CLOSED]

Public forecast

Using degrees Celsius for public forecast. Weather courtesy of forecast.io.

Closest aviation weather report (METAR) to Cape Eleuthera Airport

Closest report is Governor's Harbour Airport, 30.0 nm (55.6 km) N.

2024/05/26 21:00 (retrieved 15 minutes ago)

MYEM 262100Z AUTO 18005KT CAVOK 30/21 Q1014 A2997

Closest aviation forecast (TAF) to Cape Eleuthera Airport

Closest forecast is Lynden Pindling International Airport, 65.5 nm (121.3 km) WNW.

2024/05/26 18:18 (retrieved 3 hours ago)

TAF MYNN 261709Z 2618/2718 22008KT 9999 VCSH FEW018CB SCT025 PROB30 TEMPO 2700/2704 15010KT 8000 SHRA SCT016CB BKN045 BECMG 2709/2711 19010KT 9999 SCT020